sensor_id;sensor_type;location;lat;lon;timestamp;pressure;altitude;pressure_sealevel;temperature;humidity
84188;BME280;74316;45.648;13.764;2024-01-07T00:01:24;99585.25;;;20.93;57.03
84188;BME280;74316;45.648;13.764;2024-01-07T00:03:51;99592.47;;;20.92;57.12
84188;BME280;74316;45.648;13.764;2024-01-07T00:06:17;99578.50;;;20.90;56.90
84188;BME280;74316;45.648;13.764;2024-01-07T00:08:43;99590.31;;;20.89;56.49
84188;BME280;74316;45.648;13.764;2024-01-07T00:11:08;99594.03;;;20.88;57.18
84188;BME280;74316;45.648;13.764;2024-01-07T00:13:34;99590.56;;;20.88;57.38
84188;BME280;74316;45.648;13.764;2024-01-07T00:16:00;99575.78;;;20.85;57.17
84188;BME280;74316;45.648;13.764;2024-01-07T00:18:26;99595.59;;;20.84;56.93
84188;BME280;74316;45.648;13.764;2024-01-07T00:20:53;99590.25;;;20.84;56.71
84188;BME280;74316;45.648;13.764;2024-01-07T00:23:18;99584.28;;;20.82;56.91
84188;BME280;74316;45.648;13.764;2024-01-07T00:25:46;99589.09;;;20.80;57.27
84188;BME280;74316;45.648;13.764;2024-01-07T00:28:12;99568.69;;;20.79;56.34
84188;BME280;74316;45.648;13.764;2024-01-07T00:30:37;99560.66;;;20.79;57.01
84188;BME280;74316;45.648;13.764;2024-01-07T00:33:03;99541.34;;;20.77;56.77
84188;BME280;74316;45.648;13.764;2024-01-07T00:35:29;99572.69;;;20.77;57.45
84188;BME280;74316;45.648;13.764;2024-01-07T00:37:58;99555.78;;;20.76;57.18
84188;BME280;74316;45.648;13.764;2024-01-07T00:40:24;99571.22;;;20.69;57.96
84188;BME280;74316;45.648;13.764;2024-01-07T00:42:50;99558.13;;;20.73;57.45
84188;BME280;74316;45.648;13.764;2024-01-07T00:45:17;99554.66;;;20.72;56.42
84188;BME280;74316;45.648;13.764;2024-01-07T00:47:43;99555.72;;;20.71;56.59
84188;BME280;74316;45.648;13.764;2024-01-07T00:50:09;99547.66;;;20.71;56.61
84188;BME280;74316;45.648;13.764;2024-01-07T00:52:35;99542.31;;;20.71;56.55
84188;BME280;74316;45.648;13.764;2024-01-07T00:55:04;99565.88;;;20.69;56.87
84188;BME280;74316;45.648;13.764;2024-01-07T00:57:31;99572.03;;;20.69;57.30
84188;BME280;74316;45.648;13.764;2024-01-07T00:59:57;99567.47;;;20.70;57.05
84188;BME280;74316;45.648;13.764;2024-01-07T01:02:22;99563.19;;;20.69;57.17
84188;BME280;74316;45.648;13.764;2024-01-07T01:04:48;99574.97;;;20.68;57.43
84188;BME280;74316;45.648;13.764;2024-01-07T01:07:14;99558.88;;;20.68;57.67
84188;BME280;74316;45.648;13.764;2024-01-07T01:09:40;99554.59;;;20.67;57.66
84188;BME280;74316;45.648;13.764;2024-01-07T01:12:06;99557.25;;;20.67;57.28
84188;BME280;74316;45.648;13.764;2024-01-07T01:14:32;99535.00;;;20.66;57.08
84188;BME280;74316;45.648;13.764;2024-01-07T01:16:58;99532.59;;;20.65;57.54
84188;BME280;74316;45.648;13.764;2024-01-07T01:19:24;99557.25;;;20.67;57.30
84188;BME280;74316;45.648;13.764;2024-01-07T01:21:49;99549.22;;;20.67;56.74
84188;BME280;74316;45.648;13.764;2024-01-07T01:24:18;99555.63;;;20.66;57.33
84188;BME280;74316;45.648;13.764;2024-01-07T01:26:44;99561.00;;;20.66;57.52
84188;BME280;74316;45.648;13.764;2024-01-07T01:29:10;99561.00;;;20.66;57.46
84188;BME280;74316;45.648;13.764;2024-01-07T01:31:36;99562.06;;;20.65;57.10
84188;BME280;74316;45.648;13.764;2024-01-07T01:34:05;99539.56;;;20.66;56.60
84188;BME280;74316;45.648;13.764;2024-01-07T01:36:31;99557.25;;;20.67;57.04
84188;BME280;74316;45.648;13.764;2024-01-07T01:38:57;99559.94;;;20.67;56.80
84188;BME280;74316;45.648;13.764;2024-01-07T01:41:23;99554.03;;;20.65;56.50
84188;BME280;74316;45.648;13.764;2024-01-07T01:43:49;99552.97;;;20.66;56.76
84188;BME280;74316;45.648;13.764;2024-01-07T01:46:14;99555.63;;;20.66;56.45
84188;BME280;74316;45.648;13.764;2024-01-07T01:48:41;99557.75;;;20.64;57.10
84188;BME280;74316;45.648;13.764;2024-01-07T01:51:07;99566.34;;;20.66;56.38
84188;BME280;74316;45.648;13.764;2024-01-07T01:53:33;99557.75;;;20.64;56.45
84188;BME280;74316;45.648;13.764;2024-01-07T01:56:01;99556.69;;;20.65;56.89
84188;BME280;74316;45.648;13.764;2024-01-07T01:58:28;99556.69;;;20.65;56.91
84188;BME280;74316;45.648;13.764;2024-01-07T02:00:54;99562.06;;;20.65;56.69
84188;BME280;74316;45.648;13.764;2024-01-07T02:03:20;99548.66;;;20.65;56.88
84188;BME280;74316;45.648;13.764;2024-01-07T02:05:48;99554.50;;;20.62;56.78
84188;BME280;74316;45.648;13.764;2024-01-07T02:08:14;99554.03;;;20.65;57.22
84188;BME280;74316;45.648;13.764;2024-01-07T02:10:41;99563.13;;;20.64;56.52
84188;BME280;74316;45.648;13.764;2024-01-07T02:13:06;99579.19;;;20.64;56.71
84188;BME280;74316;45.648;13.764;2024-01-07T02:15:32;99573.50;;;20.60;56.37
84188;BME280;74316;45.648;13.764;2024-01-07T02:17:58;99577.47;;;20.58;57.24
84188;BME280;74316;45.648;13.764;2024-01-07T02:20:24;99560.84;;;20.56;56.62
84188;BME280;74316;45.648;13.764;2024-01-07T02:22:50;99554.66;;;20.55;56.40
84188;BME280;74316;45.648;13.764;2024-01-07T02:25:16;99569.34;;;20.53;56.31
84188;BME280;74316;45.648;13.764;2024-01-07T02:27:42;99572.28;;;20.51;56.88
84188;BME280;74316;45.648;13.764;2024-01-07T02:30:08;99567.16;;;20.50;56.53
84188;BME280;74316;45.648;13.764;2024-01-07T02:32:34;99577.88;;;20.50;56.31
84188;BME280;74316;45.648;13.764;2024-01-07T02:35:03;99577.31;;;20.48;56.29
84188;BME280;74316;45.648;13.764;2024-01-07T02:37:29;99563.91;;;20.48;56.33
84188;BME280;74316;45.648;13.764;2024-01-07T02:39:55;99590.16;;;20.46;56.92
84188;BME280;74316;45.648;13.764;2024-01-07T02:42:20;99571.41;;;20.46;56.75
84188;BME280;74316;45.648;13.764;2024-01-07T02:44:46;99574.06;;;20.46;57.05
84188;BME280;74316;45.648;13.764;2024-01-07T02:47:12;99583.16;;;20.45;57.24
84188;BME280;74316;45.648;13.764;2024-01-07T02:49:38;99578.88;;;20.44;56.51
84188;BME280;74316;45.648;13.764;2024-01-07T02:52:05;99578.88;;;20.44;57.11
84188;BME280;74316;45.648;13.764;2024-01-07T02:54:30;99587.72;;;20.44;56.91
84188;BME280;74316;45.648;13.764;2024-01-07T02:56:57;99585.47;;;20.41;56.20
84188;BME280;74316;45.648;13.764;2024-01-07T02:59:23;99595.38;;;20.40;56.95
84188;BME280;74316;45.648;13.764;2024-01-07T03:01:48;99592.94;;;20.39;56.71
84188;BME280;74316;45.648;13.764;2024-01-07T03:04:15;99588.63;;;20.38;56.96
84188;BME280;74316;45.648;13.764;2024-01-07T03:06:41;99581.41;;;20.38;57.15
84188;BME280;74316;45.648;13.764;2024-01-07T03:09:07;99587.81;;;20.37;56.52
84188;BME280;74316;45.648;13.764;2024-01-07T03:11:33;99588.06;;;20.36;57.28
84188;BME280;74316;45.648;13.764;2024-01-07T03:13:59;99587.25;;;20.35;57.05
84188;BME280;74316;45.648;13.764;2024-01-07T03:16:26;99587.25;;;20.35;56.78
84188;BME280;74316;45.648;13.764;2024-01-07T03:18:52;99608.69;;;20.35;57.53
84188;BME280;74316;45.648;13.764;2024-01-07T03:21:21;99608.13;;;20.33;57.01
84188;BME280;74316;45.648;13.764;2024-01-07T03:23:49;99618.84;;;20.33;56.38
84188;BME280;74316;45.648;13.764;2024-01-07T03:26:16;99617.19;;;20.32;56.78
84188;BME280;74316;45.648;13.764;2024-01-07T03:28:42;99630.59;;;20.32;56.44
84188;BME280;74316;45.648;13.764;2024-01-07T03:31:09;99631.88;;;20.30;57.21
84188;BME280;74316;45.648;13.764;2024-01-07T03:33:38;99637.25;;;20.30;57.50
84188;BME280;74316;45.648;13.764;2024-01-07T03:36:12;99646.34;;;20.29;57.03
84188;BME280;74316;45.648;13.764;2024-01-07T03:38:38;99655.19;;;20.29;56.97
84188;BME280;74316;45.648;13.764;2024-01-07T03:41:04;99655.19;;;20.29;57.09
84188;BME280;74316;45.648;13.764;2024-01-07T03:43:32;99661.59;;;20.28;57.01
84188;BME280;74316;45.648;13.764;2024-01-07T03:45:58;99656.25;;;20.28;56.76
84188;BME280;74316;45.648;13.764;2024-01-07T03:48:24;99656.25;;;20.28;56.81
84188;BME280;74316;45.648;13.764;2024-01-07T03:50:51;99638.53;;;20.27;57.07
84188;BME280;74316;45.648;13.764;2024-01-07T03:53:20;99645.53;;;20.28;56.76
84188;BME280;74316;45.648;13.764;2024-01-07T03:55:46;99636.91;;;20.26;56.92
84188;BME280;74316;45.648;13.764;2024-01-07T03:58:11;99640.66;;;20.25;56.92
84188;BME280;74316;45.648;13.764;2024-01-07T04:00:38;99637.41;;;20.23;57.10
84188;BME280;74316;45.648;13.764;2024-01-07T04:03:04;99626.69;;;20.23;56.71
84188;BME280;74316;45.648;13.764;2024-01-07T04:05:31;99626.69;;;20.23;57.58
84188;BME280;74316;45.648;13.764;2024-01-07T04:07:59;99655.56;;;20.21;56.89
84188;BME280;74316;45.648;13.764;2024-01-07T04:10:26;99636.81;;;20.21;56.79
84188;BME280;74316;45.648;13.764;2024-01-07T04:12:52;99644.84;;;20.21;57.17
84188;BME280;74316;45.648;13.764;2024-01-07T04:15:18;99645.91;;;20.20;57.16
84188;BME280;74316;45.648;13.764;2024-01-07T04:17:44;99653.13;;;20.20;57.23
84188;BME280;74316;45.648;13.764;2024-01-07T04:20:12;99652.31;;;20.19;56.75
84188;BME280;74316;45.648;13.764;2024-01-07T04:22:39;99664.66;;;20.20;56.97
84188;BME280;74316;45.648;13.764;2024-01-07T04:25:05;99647.78;;;20.20;57.24
84188;BME280;74316;45.648;13.764;2024-01-07T04:27:34;99651.25;;;20.20;57.26
84188;BME280;74316;45.648;13.764;2024-01-07T04:30:00;99633.00;;;20.17;56.89
84188;BME280;74316;45.648;13.764;2024-01-07T04:32:27;99635.69;;;20.17;57.28
84188;BME280;74316;45.648;13.764;2024-01-07T04:34:53;99645.81;;;20.15;56.90
84188;BME280;74316;45.648;13.764;2024-01-07T04:37:18;99641.53;;;20.14;57.14
84188;BME280;74316;45.648;13.764;2024-01-07T04:39:44;99661.88;;;20.15;57.09
84188;BME280;74316;45.648;13.764;2024-01-07T04:42:10;99645.81;;;20.15;56.95
84188;BME280;74316;45.648;13.764;2024-01-07T04:44:36;99647.94;;;20.13;56.97
84188;BME280;74316;45.648;13.764;2024-01-07T04:47:02;99648.75;;;20.13;56.94
84188;BME280;74316;45.648;13.764;2024-01-07T04:49:27;99660.25;;;20.14;56.81
84188;BME280;74316;45.648;13.764;2024-01-07T04:51:53;99642.56;;;20.13;57.57
84188;BME280;74316;45.648;13.764;2024-01-07T04:54:19;99647.09;;;20.12;57.28
84188;BME280;74316;45.648;13.764;2024-01-07T04:56:45;99649.19;;;20.10;56.74
84188;BME280;74316;45.648;13.764;2024-01-07T04:59:10;99622.41;;;20.10;56.39
84188;BME280;74316;45.648;13.764;2024-01-07T05:01:39;99633.38;;;20.09;57.23
84188;BME280;74316;45.648;13.764;2024-01-07T05:04:05;99641.41;;;20.09;57.23
84188;BME280;74316;45.648;13.764;2024-01-07T05:06:31;99628.03;;;20.09;57.19
84188;BME280;74316;45.648;13.764;2024-01-07T05:08:57;99603.13;;;20.08;57.41
84188;BME280;74316;45.648;13.764;2024-01-07T05:11:23;99619.75;;;20.10;56.82
84188;BME280;74316;45.648;13.764;2024-01-07T05:13:49;99609.84;;;20.11;57.41
84188;BME280;74316;45.648;13.764;2024-01-07T05:16:21;99602.41;;;20.13;56.91
84188;BME280;74316;45.648;13.764;2024-01-07T05:18:46;99598.69;;;20.14;57.10
84188;BME280;74316;45.648;13.764;2024-01-07T05:21:15;99600.53;;;20.13;56.65
84188;BME280;74316;45.648;13.764;2024-01-07T05:23:41;99612.38;;;20.18;56.39
84188;BME280;74316;45.648;13.764;2024-01-07T05:26:07;99594.22;;;20.20;56.80
84188;BME280;74316;45.648;13.764;2024-01-07T05:28:32;99592.34;;;20.20;56.65
84188;BME280;74316;45.648;13.764;2024-01-07T05:30:59;99592.34;;;20.20;56.69
84188;BME280;74316;45.648;13.764;2024-01-07T05:33:25;99587.56;;;20.22;57.28
84188;BME280;74316;45.648;13.764;2024-01-07T05:35:50;99576.03;;;20.22;57.24
84188;BME280;74316;45.648;13.764;2024-01-07T05:38:17;99598.84;;;20.24;56.76
84188;BME280;74316;45.648;13.764;2024-01-07T05:40:43;99598.63;;;20.26;57.07
84188;BME280;74316;45.648;13.764;2024-01-07T05:43:08;99600.56;;;20.30;56.61
84188;BME280;74316;45.648;13.764;2024-01-07T05:45:34;99603.00;;;20.32;57.00
84188;BME280;74316;45.648;13.764;2024-01-07T05:48:00;99607.06;;;20.34;56.02
84188;BME280;74316;45.648;13.764;2024-01-07T05:50:26;99600.97;;;20.39;56.00
84188;BME280;74316;45.648;13.764;2024-01-07T05:52:54;99612.63;;;20.45;55.93
84188;BME280;74316;45.648;13.764;2024-01-07T05:55:19;99608.09;;;20.45;56.20
84188;BME280;74316;45.648;13.764;2024-01-07T05:57:45;99621.56;;;20.50;56.37
84188;BME280;74316;45.648;13.764;2024-01-07T06:00:11;99613.28;;;20.52;56.23
84188;BME280;74316;45.648;13.764;2024-01-07T06:02:38;99619.78;;;20.56;56.34
84188;BME280;74316;45.648;13.764;2024-01-07T06:05:05;99625.47;;;20.59;55.82
84188;BME280;74316;45.648;13.764;2024-01-07T06:07:31;99631.16;;;20.63;55.72
84188;BME280;74316;45.648;13.764;2024-01-07T06:09:58;99628.00;;;20.66;55.45
84188;BME280;74316;45.648;13.764;2024-01-07T06:12:24;99611.34;;;20.64;55.41
84188;BME280;74316;45.648;13.764;2024-01-07T06:14:51;99636.59;;;20.68;55.89
84188;BME280;74316;45.648;13.764;2024-01-07T06:17:17;99624.00;;;20.68;55.36
84188;BME280;74316;45.648;13.764;2024-01-07T06:19:43;99633.44;;;20.71;55.77
84188;BME280;74316;45.648;13.764;2024-01-07T06:22:09;99625.63;;;20.69;55.68
84188;BME280;74316;45.648;13.764;2024-01-07T06:24:36;99631.81;;;20.70;55.75
84188;BME280;74316;45.648;13.764;2024-01-07T06:27:02;99636.34;;;20.69;55.81
84188;BME280;74316;45.648;13.764;2024-01-07T06:29:29;99645.78;;;20.72;55.36
84188;BME280;74316;45.648;13.764;2024-01-07T06:31:56;99637.97;;;20.70;55.67
84188;BME280;74316;45.648;13.764;2024-01-07T06:34:22;99644.16;;;20.71;55.76
84188;BME280;74316;45.648;13.764;2024-01-07T06:36:48;99644.16;;;20.71;55.62
84188;BME280;74316;45.648;13.764;2024-01-07T06:39:14;99654.88;;;20.71;55.37
84188;BME280;74316;45.648;13.764;2024-01-07T06:41:40;99670.97;;;20.71;55.13
84188;BME280;74316;45.648;13.764;2024-01-07T06:44:05;99670.72;;;20.73;55.25
84188;BME280;74316;45.648;13.764;2024-01-07T06:46:31;99677.13;;;20.71;55.69
84188;BME280;74316;45.648;13.764;2024-01-07T06:48:57;99668.28;;;20.71;55.00
84188;BME280;74316;45.648;13.764;2024-01-07T06:51:22;99677.38;;;20.70;54.96
84188;BME280;74316;45.648;13.764;2024-01-07T06:53:48;99681.09;;;20.69;55.31
84188;BME280;74316;45.648;13.764;2024-01-07T06:56:15;99665.28;;;20.67;55.81
84188;BME280;74316;45.648;13.764;2024-01-07T06:58:42;99655.38;;;20.68;55.11
84188;BME280;74316;45.648;13.764;2024-01-07T07:01:08;99660.72;;;20.68;55.28
84188;BME280;74316;45.648;13.764;2024-01-07T07:03:34;99659.66;;;20.69;55.32
84188;BME280;74316;45.648;13.764;2024-01-07T07:06:00;99669.56;;;20.68;55.15
84188;BME280;74316;45.648;13.764;2024-01-07T07:08:26;99670.63;;;20.67;55.95
84188;BME280;74316;45.648;13.764;2024-01-07T07:10:52;99678.91;;;20.66;55.84
84188;BME280;74316;45.648;13.764;2024-01-07T07:13:18;99695.25;;;20.64;55.52
84188;BME280;74316;45.648;13.764;2024-01-07T07:15:44;99684.53;;;20.64;55.70
84188;BME280;74316;45.648;13.764;2024-01-07T07:18:10;99680.19;;;20.63;55.61
84188;BME280;74316;45.648;13.764;2024-01-07T07:20:35;99695.47;;;20.63;55.54
84188;BME280;74316;45.648;13.764;2024-01-07T07:23:02;99675.69;;;20.64;56.21
84188;BME280;74316;45.648;13.764;2024-01-07T07:25:28;99679.38;;;20.63;55.46
84188;BME280;74316;45.648;13.764;2024-01-07T07:27:53;99670.31;;;20.64;55.56
84188;BME280;74316;45.648;13.764;2024-01-07T07:30:20;99682.06;;;20.63;55.40
84188;BME280;74316;45.648;13.764;2024-01-07T07:32:46;99681.03;;;20.64;55.27
84188;BME280;74316;45.648;13.764;2024-01-07T07:35:12;99680.78;;;20.65;55.35
84188;BME280;74316;45.648;13.764;2024-01-07T07:37:38;99675.19;;;20.67;55.53
84188;BME280;74316;45.648;13.764;2024-01-07T07:40:05;99689.63;;;20.66;55.06
84188;BME280;74316;45.648;13.764;2024-01-07T07:42:31;99684.28;;;20.66;55.64
84188;BME280;74316;45.648;13.764;2024-01-07T07:44:57;99673.56;;;20.66;55.19
84188;BME280;74316;45.648;13.764;2024-01-07T07:47:23;99669.81;;;20.67;55.34
84188;BME280;74316;45.648;13.764;2024-01-07T07:49:50;99667.16;;;20.67;56.16
84188;BME280;74316;45.648;13.764;2024-01-07T07:52:16;99667.16;;;20.67;55.24
84188;BME280;74316;45.648;13.764;2024-01-07T07:54:46;99673.63;;;20.71;55.16
84188;BME280;74316;45.648;13.764;2024-01-07T07:57:12;99667.72;;;20.69;55.45
84188;BME280;74316;45.648;13.764;2024-01-07T07:59:38;99687.53;;;20.68;55.94
84188;BME280;74316;45.648;13.764;2024-01-07T08:02:04;99695.81;;;20.66;55.48
84188;BME280;74316;45.648;13.764;2024-01-07T08:04:29;99700.94;;;20.68;55.32
84188;BME280;74316;45.648;13.764;2024-01-07T08:06:56;99697.44;;;20.67;55.23
84188;BME280;74316;45.648;13.764;2024-01-07T08:09:22;99713.53;;;20.67;55.78
84188;BME280;74316;45.648;13.764;2024-01-07T08:11:50;99710.03;;;20.67;55.90
84188;BME280;74316;45.648;13.764;2024-01-07T08:14:16;99708.97;;;20.68;55.68
84188;BME280;74316;45.648;13.764;2024-01-07T08:16:42;99726.09;;;20.67;56.01
84188;BME280;74316;45.648;13.764;2024-01-07T08:19:08;99711.09;;;20.66;55.02
84188;BME280;74316;45.648;13.764;2024-01-07T08:21:33;99718.06;;;20.67;55.97
84188;BME280;74316;45.648;13.764;2024-01-07T08:24:00;99728.53;;;20.68;55.51
84188;BME280;74316;45.648;13.764;2024-01-07T08:26:25;99705.22;;;20.69;55.89
84188;BME280;74316;45.648;13.764;2024-01-07T08:28:51;99730.41;;;20.68;55.79
84188;BME280;74316;45.648;13.764;2024-01-07T08:31:17;99736.59;;;20.68;55.67
84188;BME280;74316;45.648;13.764;2024-01-07T08:33:44;99721.31;;;20.69;56.16
84188;BME280;74316;45.648;13.764;2024-01-07T08:36:13;99729.34;;;20.69;56.01
84188;BME280;74316;45.648;13.764;2024-01-07T08:38:39;99727.50;;;20.69;55.02
84188;BME280;74316;45.648;13.764;2024-01-07T08:41:05;99737.41;;;20.69;55.73
84188;BME280;74316;45.648;13.764;2024-01-07T08:43:31;99737.88;;;20.66;56.06
84188;BME280;74316;45.648;13.764;2024-01-07T08:45:57;99740.06;;;20.69;55.45
84188;BME280;74316;45.648;13.764;2024-01-07T08:48:23;99753.47;;;20.69;55.40
84188;BME280;74316;45.648;13.764;2024-01-07T08:50:49;99746.50;;;20.68;55.73
84188;BME280;74316;45.648;13.764;2024-01-07T08:53:19;99747.06;;;20.70;55.37
84188;BME280;74316;45.648;13.764;2024-01-07T08:55:48;99746.50;;;20.68;55.47
84188;BME280;74316;45.648;13.764;2024-01-07T08:58:15;99734.97;;;20.67;55.72
84188;BME280;74316;45.648;13.764;2024-01-07T09:00:41;99756.41;;;20.67;55.52
84188;BME280;74316;45.648;13.764;2024-01-07T09:03:07;99762.56;;;20.68;55.45
84188;BME280;74316;45.648;13.764;2024-01-07T09:05:33;99770.03;;;20.66;56.05
84188;BME280;74316;45.648;13.764;2024-01-07T09:07:59;99759.31;;;20.66;55.88
84188;BME280;74316;45.648;13.764;2024-01-07T09:10:25;99788.25;;;20.64;55.56
84188;BME280;74316;45.648;13.764;2024-01-07T09:12:55;99774.25;;;20.62;55.50
84188;BME280;74316;45.648;13.764;2024-01-07T09:15:21;99801.03;;;20.62;56.30
84188;BME280;74316;45.648;13.764;2024-01-07T09:17:47;99797.31;;;20.63;55.65
84188;BME280;74316;45.648;13.764;2024-01-07T09:20:12;99799.41;;;20.61;55.37
84188;BME280;74316;45.648;13.764;2024-01-07T09:22:38;99806.41;;;20.62;55.34
84188;BME280;74316;45.648;13.764;2024-01-07T09:25:05;99824.09;;;20.63;55.40
84188;BME280;74316;45.648;13.764;2024-01-07T09:27:32;99827.84;;;20.62;55.13
84188;BME280;74316;45.648;13.764;2024-01-07T09:29:58;99851.38;;;20.60;56.01
84188;BME280;74316;45.648;13.764;2024-01-07T09:32:24;99835.88;;;20.62;55.94
84188;BME280;74316;45.648;13.764;2024-01-07T09:34:50;99822.97;;;20.59;55.78
84188;BME280;74316;45.648;13.764;2024-01-07T09:37:16;99800.59;;;20.65;55.28
84188;BME280;74316;45.648;13.764;2024-01-07T09:39:43;99840.19;;;20.63;55.78
84188;BME280;74316;45.648;13.764;2024-01-07T09:42:14;99841.97;;;20.57;55.56
84188;BME280;74316;45.648;13.764;2024-01-07T09:44:42;99850.81;;;20.58;54.77
84188;BME280;74316;45.648;13.764;2024-01-07T09:47:13;99843.25;;;20.55;54.71
84188;BME280;74316;45.648;13.764;2024-01-07T09:49:39;99860.38;;;20.54;54.79
84188;BME280;74316;45.648;13.764;2024-01-07T09:52:05;99870.91;;;20.44;55.65
84188;BME280;74316;45.648;13.764;2024-01-07T09:54:31;99864.91;;;20.41;55.94
84188;BME280;74316;45.648;13.764;2024-01-07T09:57:02;99872.53;;;20.45;55.89
84188;BME280;74316;45.648;13.764;2024-01-07T09:59:29;99872.03;;;20.48;55.24
84188;BME280;74316;45.648;13.764;2024-01-07T10:01:55;99882.53;;;20.49;55.80
84188;BME280;74316;45.648;13.764;2024-01-07T10:04:22;99893.22;;;20.49;55.31
84188;BME280;74316;45.648;13.764;2024-01-07T10:06:48;99893.56;;;20.53;54.84
84188;BME280;74316;45.648;13.764;2024-01-07T10:09:40;99906.97;;;20.53;54.92
84188;BME280;74316;45.648;13.764;2024-01-07T10:12:06;99917.69;;;20.53;55.14
84188;BME280;74316;45.648;13.764;2024-01-07T10:14:33;99942.41;;;20.55;55.56
84188;BME280;74316;45.648;13.764;2024-01-07T10:16:59;99943.91;;;20.51;55.37
84188;BME280;74316;45.648;13.764;2024-01-07T10:19:25;99944.72;;;20.51;55.31
84188;BME280;74316;45.648;13.764;2024-01-07T10:22:02;99941.47;;;20.49;55.74
84188;BME280;74316;45.648;13.764;2024-01-07T10:24:38;99948.44;;;20.50;55.47
84188;BME280;74316;45.648;13.764;2024-01-07T10:27:05;99944.38;;;20.48;55.16
84188;BME280;74316;45.648;13.764;2024-01-07T10:29:31;99944.38;;;20.48;55.56
84188;BME280;74316;45.648;13.764;2024-01-07T10:31:58;99956.97;;;20.47;55.06
84188;BME280;74316;45.648;13.764;2024-01-07T10:34:25;99961.75;;;20.45;55.03
84188;BME280;74316;45.648;13.764;2024-01-07T10:36:52;99960.94;;;20.45;55.47
84188;BME280;74316;45.648;13.764;2024-01-07T10:39:19;99957.44;;;20.44;54.98
84188;BME280;74316;45.648;13.764;2024-01-07T10:41:46;99967.34;;;20.44;55.30
84188;BME280;74316;45.648;13.764;2024-01-07T10:44:13;99954.97;;;20.42;55.32
84188;BME280;74316;45.648;13.764;2024-01-07T10:46:40;99952.50;;;20.41;55.27
84188;BME280;74316;45.648;13.764;2024-01-07T10:49:19;99961.00;;;20.38;55.24
84188;BME280;74316;45.648;13.764;2024-01-07T10:51:45;99952.75;;;20.39;55.37
84188;BME280;74316;45.648;13.764;2024-01-07T10:54:15;99946.81;;;20.37;55.11
84188;BME280;74316;45.648;13.764;2024-01-07T10:56:46;99944.59;;;20.34;55.35
84188;BME280;74316;45.648;13.764;2024-01-07T10:59:15;99948.91;;;20.35;54.91
84188;BME280;74316;45.648;13.764;2024-01-07T11:01:44;99959.84;;;20.34;55.44
84188;BME280;74316;45.648;13.764;2024-01-07T11:04:17;99951.00;;;20.33;55.39
84188;BME280;74316;45.648;13.764;2024-01-07T11:06:51;99922.56;;;20.32;55.39
84188;BME280;74316;45.648;13.764;2024-01-07T11:09:47;99930.16;;;20.35;55.35
84188;BME280;74316;45.648;13.764;2024-01-07T11:12:14;99924.22;;;20.33;55.36
84188;BME280;74316;45.648;13.764;2024-01-07T11:14:41;99927.91;;;20.32;55.16
84188;BME280;74316;45.648;13.764;2024-01-07T11:17:11;99943.78;;;20.34;55.17
84188;BME280;74316;45.648;13.764;2024-01-07T11:19:37;99931.41;;;20.33;55.12
84188;BME280;74316;45.648;13.764;2024-01-07T11:22:35;99914.06;;;20.35;55.74
84188;BME280;74316;45.648;13.764;2024-01-07T11:25:01;99913.03;;;20.36;55.58
84188;BME280;74316;45.648;13.764;2024-01-07T11:27:30;99921.06;;;20.36;55.61
84188;BME280;74316;45.648;13.764;2024-01-07T11:30:18;99900.22;;;20.38;55.97
84188;BME280;74316;45.648;13.764;2024-01-07T11:32:45;99896.47;;;20.39;55.69
84188;BME280;74316;45.648;13.764;2024-01-07T11:35:13;99890.06;;;20.40;55.46
84188;BME280;74316;45.648;13.764;2024-01-07T11:37:41;99881.63;;;20.44;55.80
84188;BME280;74316;45.648;13.764;2024-01-07T11:40:07;99880.56;;;20.45;55.44
84188;BME280;74316;45.648;13.764;2024-01-07T11:42:33;99851.66;;;20.47;55.66
84188;BME280;74316;45.648;13.764;2024-01-07T11:44:59;99844.75;;;20.51;55.36
84188;BME280;74316;45.648;13.764;2024-01-07T11:47:25;99820.19;;;20.54;55.22
84188;BME280;74316;45.648;13.764;2024-01-07T11:49:53;99821.34;;;20.58;55.10
84188;BME280;74316;45.648;13.764;2024-01-07T11:52:19;99811.75;;;20.62;55.26
84188;BME280;74316;45.648;13.764;2024-01-07T11:54:46;99827.38;;;20.65;54.70
84188;BME280;74316;45.648;13.764;2024-01-07T11:57:16;99807.56;;;20.66;54.99
84188;BME280;74316;45.648;13.764;2024-01-07T11:59:42;99804.41;;;20.69;54.61
84188;BME280;74316;45.648;13.764;2024-01-07T12:02:07;99783.53;;;20.71;55.02
84188;BME280;74316;45.648;13.764;2024-01-07T12:04:33;99771.75;;;20.72;55.02
84188;BME280;74316;45.648;13.764;2024-01-07T12:07:04;99786.78;;;20.73;55.38
84188;BME280;74316;45.648;13.764;2024-01-07T12:09:30;99785.50;;;20.76;54.47
84188;BME280;74316;45.648;13.764;2024-01-07T12:11:56;99771.88;;;20.77;54.56
84188;BME280;74316;45.648;13.764;2024-01-07T12:14:23;99776.16;;;20.78;54.25
84188;BME280;74316;45.648;13.764;2024-01-07T12:16:51;99776.72;;;20.80;54.94
84188;BME280;74316;45.648;13.764;2024-01-07T12:19:26;99767.06;;;20.79;54.47
84188;BME280;74316;45.648;13.764;2024-01-07T12:22:08;99774.28;;;20.79;54.74
84188;BME280;74316;45.648;13.764;2024-01-07T12:24:36;99794.94;;;20.78;55.11
84188;BME280;74316;45.648;13.764;2024-01-07T12:27:06;99789.56;;;20.78;54.53
84188;BME280;74316;45.648;13.764;2024-01-07T12:29:44;99789.56;;;20.78;54.86
84188;BME280;74316;45.648;13.764;2024-01-07T12:32:11;99775.09;;;20.79;54.41
84188;BME280;74316;45.648;13.764;2024-01-07T12:35:03;99794.94;;;20.78;54.68
84188;BME280;74316;45.648;13.764;2024-01-07T12:37:29;99795.75;;;20.79;54.37
84188;BME280;74316;45.648;13.764;2024-01-07T12:39:55;99782.00;;;20.75;54.56
84188;BME280;74316;45.648;13.764;2024-01-07T12:42:21;99792.50;;;20.77;54.34
84188;BME280;74316;45.648;13.764;2024-01-07T12:44:49;99775.03;;;20.74;54.43
84188;BME280;74316;45.648;13.764;2024-01-07T12:47:15;99785.50;;;20.76;54.60
84188;BME280;74316;45.648;13.764;2024-01-07T12:49:41;99773.97;;;20.75;55.03